Terminal Aerodrome Forecast
Issued by NWS Sterling, VA

Current Version | Previous Version | Text Only | Print | Product List | Glossary Off
Versions: 1 2 3 4 5 6 7 8 9 10 11 12 13 14 15 16 17

000
FTUS41 KLWX 161120
TAFMRB
TAF
KMRB 161120Z 1612/1712 27006KT P6SM -SHRA OVC070
     FM161400 29007KT P6SM OVC060
     FM161700 31009KT P6SM -SHRA BKN025 OVC040
     FM161900 31014G23KT 6SM -SHRA BR BKN025 OVC040
     FM162100 31018G29KT P6SM OVC060
     FM170500 33004KT P6SM FEW250=

USA.gov is the U.S. government's official web portal to all federal, state and local government web resources and services.